Time;durP1;ratioP1;P1;durP2;ratioP2;P2;SDS_P1;SDS_P2;PMS_P1;PMS_P2;Temp;Humidity;BMP_temperature;BMP_pressure;BME280_temperature;BME280_humidity;BME280_pressure;Samples;Min_cycle;Max_cycle;Signal;HPM_P1;HPM_P2
2023/12/19 00:00:58;;;;;;;0.20;0.20;;;;;;;;;;5049688;28;20354;-73
2023/12/19 00:03:24;;;;;;;0.20;0.20;;;;;;;;;;5054078;28;20251;-73
2023/12/19 00:05:52;;;;;;;0.10;0.10;;;;;;;;;;5049390;28;20254;-72
2023/12/19 00:08:20;;;;;;;0.13;0.13;;;;;;;;;;5054206;28;20211;-72
2023/12/19 00:10:52;;;;;;;0.20;0.20;;;;;;;;;;5049845;28;20243;-73
2023/12/19 00:13:19;;;;;;;0.20;0.20;;;;;;;;;;5054124;28;20203;-73
2023/12/19 00:15:45;;;;;;;0.10;0.10;;;;;;;;;;5049703;28;20314;-73
2023/12/19 00:18:12;;;;;;;0.20;0.20;;;;;;;;;;5053195;28;20209;-73
2023/12/19 00:20:38;;;;;;;0.20;0.20;;;;;;;;;;5050956;28;20263;-73
2023/12/19 00:23:06;;;;;;;0.20;0.20;;;;;;;;;;5052107;28;20240;-73
2023/12/19 00:25:32;;;;;;;0.20;0.20;;;;;;;;;;5051776;28;20258;-73
2023/12/19 00:27:59;;;;;;;0.20;0.20;;;;;;;;;;5051014;28;20203;-73
2023/12/19 00:30:26;;;;;;;0.20;0.20;;;;;;;;;;5052171;28;20206;-73
2023/12/19 00:32:53;;;;;;;0.10;0.10;;;;;;;;;;5050156;28;20187;-73
2023/12/19 00:35:19;;;;;;;0.10;0.10;;;;;;;;;;5053309;28;20261;-73
2023/12/19 00:37:46;;;;;;;0.20;0.20;;;;;;;;;;5048840;28;20226;-73
2023/12/19 00:40:14;;;;;;;0.20;0.20;;;;;;;;;;5054125;28;20385;-73
2023/12/19 00:42:41;;;;;;;0.20;0.20;;;;;;;;;;5048179;28;20192;-73
2023/12/19 00:45:08;;;;;;;0.70;0.70;;;;;;;;;;5064844;28;20204;-73
2023/12/19 00:47:34;;;;;;;0.20;0.20;;;;;;;;;;5036648;28;20207;-73
2023/12/19 00:50:01;;;;;;;0.20;0.20;;;;;;;;;;5065061;28;20549;-72
2023/12/19 00:52:29;;;;;;;0.10;0.10;;;;;;;;;;5036651;28;20240;-73
2023/12/19 00:54:56;;;;;;;0.20;0.20;;;;;;;;;;5064706;28;20254;-73
2023/12/19 00:57:24;;;;;;;0.20;0.20;;;;;;;;;;5036732;28;20244;-73
2023/12/19 00:59:50;;;;;;;0.10;0.10;;;;;;;;;;5064804;28;20248;-73
2023/12/19 01:02:16;;;;;;;0.17;0.17;;;;;;;;;;5036534;28;20247;-73
2023/12/19 01:04:43;;;;;;;0.20;0.20;;;;;;;;;;5064468;28;20290;-73
2023/12/19 01:07:09;;;;;;;0.13;0.13;;;;;;;;;;5035396;28;20243;-73
2023/12/19 01:09:35;;;;;;;0.20;0.20;;;;;;;;;;5064592;28;20376;-73
2023/12/19 01:12:02;;;;;;;0.20;0.20;;;;;;;;;;5037337;28;20244;-73
2023/12/19 01:14:30;;;;;;;0.20;0.20;;;;;;;;;;5063334;28;20547;-74
2023/12/19 01:16:56;;;;;;;0.20;0.20;;;;;;;;;;5037921;28;20290;-73
2023/12/19 01:19:23;;;;;;;0.20;0.20;;;;;;;;;;5062375;28;20241;-73
2023/12/19 01:21:49;;;;;;;0.10;0.10;;;;;;;;;;5038987;28;20243;-73
2023/12/19 01:24:15;;;;;;;0.20;0.20;;;;;;;;;;5061171;28;20243;-73
2023/12/19 01:26:42;;;;;;;0.17;0.17;;;;;;;;;;5040254;28;20240;-73
2023/12/19 01:29:08;;;;;;;0.23;0.23;;;;;;;;;;5059919;28;20210;-73
2023/12/19 01:31:37;;;;;;;0.20;0.20;;;;;;;;;;5041293;28;20271;-72
2023/12/19 01:34:04;;;;;;;0.20;0.20;;;;;;;;;;5059255;28;20208;-72
2023/12/19 01:36:30;;;;;;;0.20;0.20;;;;;;;;;;5041853;28;20248;-73
2023/12/19 01:38:57;;;;;;;0.10;0.10;;;;;;;;;;5058317;28;20546;-72
2023/12/19 01:41:23;;;;;;;0.20;0.20;;;;;;;;;;5042786;28;20251;-72
2023/12/19 01:43:50;;;;;;;0.13;0.13;;;;;;;;;;5056966;28;20261;-73
2023/12/19 01:46:17;;;;;;;0.20;0.20;;;;;;;;;;5043732;28;20257;-73
2023/12/19 01:48:45;;;;;;;0.17;0.17;;;;;;;;;;5056370;28;20204;-73
2023/12/19 01:51:12;;;;;;;0.20;0.20;;;;;;;;;;5044379;28;20443;-72
2023/12/19 01:53:39;;;;;;;0.20;0.20;;;;;;;;;;5055328;28;20225;-72
2023/12/19 01:56:05;;;;;;;0.20;0.20;;;;;;;;;;5045066;28;20608;-73
2023/12/19 01:58:32;;;;;;;0.13;0.13;;;;;;;;;;5054235;28;20227;-72
2023/12/19 02:06:05;;;;;;;0.20;0.20;;;;;;;;;;4960784;28;20246;-71
2023/12/19 02:08:32;;;;;;;0.20;0.20;;;;;;;;;;4984329;28;20239;-70
2023/12/19 02:10:58;;;;;;;0.20;0.20;;;;;;;;;;4974349;28;20266;-70
2023/12/19 02:13:24;;;;;;;0.20;0.20;;;;;;;;;;4983815;28;20281;-70
2023/12/19 02:15:51;;;;;;;0.20;0.20;;;;;;;;;;4974352;28;20246;-71
2023/12/19 02:18:18;;;;;;;0.20;0.20;;;;;;;;;;4984015;28;20496;-71
2023/12/19 02:20:44;;;;;;;0.10;0.10;;;;;;;;;;4978358;28;20245;-70
2023/12/19 02:23:12;;;;;;;0.10;0.10;;;;;;;;;;4987799;28;20281;-71
2023/12/19 02:25:39;;;;;;;0.10;0.10;;;;;;;;;;4978426;28;20304;-70
2023/12/19 02:28:05;;;;;;;0.20;0.20;;;;;;;;;;4988009;28;20213;-70
2023/12/19 02:30:32;;;;;;;0.20;0.20;;;;;;;;;;4978642;28;20335;-70
2023/12/19 02:32:58;;;;;;;0.10;0.10;;;;;;;;;;4987841;28;20346;-71
2023/12/19 02:35:25;;;;;;;0.20;0.20;;;;;;;;;;4978400;28;20215;-70
2023/12/19 02:37:51;;;;;;;0.20;0.20;;;;;;;;;;4987818;28;20272;-70
2023/12/19 02:40:19;;;;;;;0.10;0.10;;;;;;;;;;4978505;28;20453;-70
2023/12/19 02:42:45;;;;;;;0.20;0.20;;;;;;;;;;4987650;28;20229;-70
2023/12/19 02:45:12;;;;;;;0.10;0.10;;;;;;;;;;4978511;28;20206;-71
2023/12/19 02:47:38;;;;;;;0.10;0.10;;;;;;;;;;4987382;28;20451;-71
2023/12/19 02:50:05;;;;;;;0.20;0.20;;;;;;;;;;4988426;28;20397;-71
2023/12/19 02:52:31;;;;;;;0.20;0.20;;;;;;;;;;4977107;28;20458;-71
2023/12/19 02:54:58;;;;;;;0.10;0.10;;;;;;;;;;4988290;28;20277;-70
2023/12/19 02:57:25;;;;;;;0.20;0.20;;;;;;;;;;4976833;28;20302;-71
2023/12/19 02:59:52;;;;;;;0.10;0.10;;;;;;;;;;4988106;28;20242;-71
2023/12/19 03:02:18;;;;;;;0.20;0.20;;;;;;;;;;4976764;28;20248;-70
2023/12/19 03:04:44;;;;;;;0.20;0.20;;;;;;;;;;4987767;28;20274;-70
2023/12/19 03:07:11;;;;;;;0.20;0.20;;;;;;;;;;4976921;28;20260;-70
2023/12/19 03:09:37;;;;;;;0.10;0.10;;;;;;;;;;4987920;28;20274;-70
2023/12/19 03:12:04;;;;;;;0.10;0.10;;;;;;;;;;4976683;28;20260;-71
2023/12/19 03:14:32;;;;;;;0.20;0.20;;;;;;;;;;4987886;28;20244;-70
2023/12/19 03:16:59;;;;;;;0.10;0.10;;;;;;;;;;4976732;28;20239;-70
2023/12/19 03:19:25;;;;;;;0.10;0.10;;;;;;;;;;4987766;28;20447;-70
2023/12/19 03:21:52;;;;;;;0.20;0.20;;;;;;;;;;4976711;28;20261;-70
2023/12/19 03:24:18;;;;;;;0.20;0.20;;;;;;;;;;4987453;28;20416;-70
2023/12/19 03:26:45;;;;;;;0.20;0.20;;;;;;;;;;4976600;28;20241;-70
2023/12/19 03:29:11;;;;;;;0.20;0.20;;;;;;;;;;4987154;28;20208;-70
2023/12/19 03:31:39;;;;;;;0.10;0.10;;;;;;;;;;4975539;28;20239;-70
2023/12/19 03:34:05;;;;;;;0.20;0.20;;;;;;;;;;4987300;28;20213;-71
2023/12/19 03:36:31;;;;;;;0.20;0.20;;;;;;;;;;4976558;28;20261;-70
2023/12/19 03:38:58;;;;;;;0.10;0.10;;;;;;;;;;4986936;28;20214;-70
2023/12/19 03:41:24;;;;;;;0.13;0.13;;;;;;;;;;4976489;28;20302;-71
2023/12/19 03:43:51;;;;;;;0.10;0.10;;;;;;;;;;4986831;28;20459;-71
2023/12/19 03:46:17;;;;;;;0.20;0.20;;;;;;;;;;4976589;28;20583;-70
2023/12/19 03:48:45;;;;;;;0.17;0.17;;;;;;;;;;4986780;28;20279;-70
2023/12/19 03:51:14;;;;;;;0.20;0.20;;;;;;;;;;4976583;28;20266;-70
2023/12/19 03:53:41;;;;;;;0.20;0.20;;;;;;;;;;4986599;28;20215;-70
2023/12/19 03:56:07;;;;;;;0.10;0.10;;;;;;;;;;4976267;28;20311;-71
2023/12/19 03:58:34;;;;;;;0.10;0.10;;;;;;;;;;4986440;28;20248;-70
2023/12/19 04:01:00;;;;;;;0.10;0.10;;;;;;;;;;4976500;28;20245;-71
2023/12/19 04:03:27;;;;;;;0.10;0.10;;;;;;;;;;4986066;28;20293;-71
2023/12/19 04:05:54;;;;;;;0.20;0.20;;;;;;;;;;4976285;28;20270;-70
2023/12/19 04:08:21;;;;;;;0.10;0.10;;;;;;;;;;4985951;28;20220;-70
2023/12/19 04:10:51;;;;;;;0.10;0.10;;;;;;;;;;4976266;28;20324;-70
2023/12/19 04:13:17;;;;;;;0.20;0.20;;;;;;;;;;4985828;28;20276;-70
2023/12/19 04:15:43;;;;;;;0.20;0.20;;;;;;;;;;4976296;28;20314;-70
2023/12/19 04:18:14;;;;;;;0.20;0.20;;;;;;;;;;4986079;28;20232;-69
2023/12/19 04:20:40;;;;;;;0.20;0.20;;;;;;;;;;4976449;28;20556;-70
2023/12/19 04:23:08;;;;;;;0.20;0.20;;;;;;;;;;4985633;28;20205;-70
2023/12/19 04:25:34;;;;;;;0.20;0.20;;;;;;;;;;4976467;28;20319;-70
2023/12/19 04:28:00;;;;;;;0.20;0.20;;;;;;;;;;4985565;28;20214;-70
2023/12/19 04:30:27;;;;;;;0.20;0.20;;;;;;;;;;4976422;28;20209;-70
2023/12/19 04:32:53;;;;;;;0.20;0.20;;;;;;;;;;4985273;28;20229;-70
2023/12/19 04:35:19;;;;;;;0.20;0.20;;;;;;;;;;4976336;28;20248;-70
2023/12/19 04:37:46;;;;;;;0.20;0.20;;;;;;;;;;4985173;28;20256;-70
2023/12/19 04:40:14;;;;;;;0.10;0.10;;;;;;;;;;4976523;28;20274;-71
2023/12/19 04:42:40;;;;;;;0.37;0.37;;;;;;;;;;4984924;28;20203;-70
2023/12/19 04:45:07;;;;;;;0.20;0.20;;;;;;;;;;4986239;28;20213;-70
2023/12/19 04:47:33;;;;;;;0.20;0.20;;;;;;;;;;4959050;28;20230;-70
2023/12/19 04:49:59;;;;;;;0.20;0.20;;;;;;;;;;4986279;28;20211;-70
2023/12/19 04:52:26;;;;;;;0.20;0.20;;;;;;;;;;4975029;28;20570;-70
2023/12/19 04:54:52;;;;;;;0.10;0.10;;;;;;;;;;4986107;28;20446;-70
2023/12/19 04:57:20;;;;;;;0.10;0.10;;;;;;;;;;4974704;28;20332;-70
2023/12/19 04:59:46;;;;;;;0.10;0.10;;;;;;;;;;4985968;28;20457;-70
2023/12/19 05:02:12;;;;;;;0.10;0.10;;;;;;;;;;4974501;28;20303;-70
2023/12/19 05:04:39;;;;;;;0.20;0.20;;;;;;;;;;4985139;28;20303;-70
2023/12/19 05:07:05;;;;;;;0.10;0.10;;;;;;;;;;4974506;28;20236;-71
2023/12/19 05:09:32;;;;;;;0.20;0.20;;;;;;;;;;4985853;28;20400;-70
2023/12/19 05:11:59;;;;;;;0.20;0.20;;;;;;;;;;4974600;28;20244;-70
2023/12/19 05:14:26;;;;;;;0.20;0.20;;;;;;;;;;4985470;28;20235;-71
2023/12/19 05:16:53;;;;;;;0.20;0.20;;;;;;;;;;4974404;28;20238;-70
2023/12/19 05:19:19;;;;;;;0.20;0.20;;;;;;;;;;4985338;28;20215;-70
2023/12/19 05:21:45;;;;;;;0.20;0.20;;;;;;;;;;4974444;28;20306;-71
2023/12/19 05:24:12;;;;;;;0.20;0.20;;;;;;;;;;4985165;28;20240;-70
2023/12/19 05:26:38;;;;;;;0.20;0.20;;;;;;;;;;4974675;28;20242;-70
2023/12/19 05:29:04;;;;;;;0.20;0.20;;;;;;;;;;4985353;28;20207;-71
2023/12/19 05:31:33;;;;;;;0.20;0.20;;;;;;;;;;4974449;28;20504;-71
2023/12/19 05:33:59;;;;;;;0.20;0.20;;;;;;;;;;4984954;28;20210;-71
2023/12/19 05:36:26;;;;;;;0.10;0.10;;;;;;;;;;4974415;28;20491;-70
2023/12/19 05:38:52;;;;;;;0.20;0.20;;;;;;;;;;4985051;28;20424;-70
2023/12/19 05:41:18;;;;;;;0.20;0.20;;;;;;;;;;4974431;28;20269;-70
2023/12/19 05:43:45;;;;;;;0.20;0.20;;;;;;;;;;4984565;28;20209;-70
2023/12/19 05:46:13;;;;;;;0.20;0.20;;;;;;;;;;4974378;28;20252;-70
2023/12/19 05:48:41;;;;;;;0.20;0.20;;;;;;;;;;4984505;28;20209;-70
2023/12/19 05:51:07;;;;;;;0.20;0.20;;;;;;;;;;4974462;28;20486;-70
2023/12/19 05:53:34;;;;;;;0.20;0.20;;;;;;;;;;4984080;28;20207;-70
2023/12/19 05:56:00;;;;;;;0.20;0.20;;;;;;;;;;4974324;28;20408;-70
2023/12/19 05:58:27;;;;;;;0.20;0.20;;;;;;;;;;4984185;28;20480;-71
2023/12/19 06:00:55;;;;;;;0.13;0.13;;;;;;;;;;4974469;28;20317;-71
2023/12/19 06:03:22;;;;;;;0.80;0.80;;;;;;;;;;4984245;28;20233;-71
2023/12/19 06:05:49;;;;;;;0.20;0.20;;;;;;;;;;4974286;28;20311;-70
2023/12/19 06:08:17;;;;;;;8.03;7.53;;;;;;;;;;4984186;28;20438;-70
2023/12/19 06:10:44;;;;;;;0.20;0.20;;;;;;;;;;4974236;28;20306;-70
2023/12/19 06:13:11;;;;;;;0.20;0.20;;;;;;;;;;4984034;28;20278;-71
2023/12/19 06:15:37;;;;;;;0.20;0.20;;;;;;;;;;4974215;28;20242;-70
2023/12/19 06:18:04;;;;;;;0.20;0.20;;;;;;;;;;4983667;28;20219;-71
2023/12/19 06:20:30;;;;;;;0.20;0.20;;;;;;;;;;4974793;28;21310;-70
2023/12/19 06:22:58;;;;;;;0.20;0.20;;;;;;;;;;4983742;28;20205;-70
2023/12/19 06:25:25;;;;;;;0.20;0.20;;;;;;;;;;4974147;28;20279;-71
2023/12/19 06:27:52;;;;;;;0.20;0.20;;;;;;;;;;4983645;28;20222;-71
2023/12/19 06:30:19;;;;;;;0.20;0.20;;;;;;;;;;4974655;28;20243;-71
2023/12/19 06:32:47;;;;;;;0.97;0.97;;;;;;;;;;4983593;28;20237;-70
2023/12/19 06:35:13;;;;;;;0.20;0.20;;;;;;;;;;4974663;28;20217;-71
2023/12/19 06:37:40;;;;;;;0.20;0.20;;;;;;;;;;4983765;28;20221;-72
2023/12/19 06:40:08;;;;;;;0.20;0.20;;;;;;;;;;4984681;28;20215;-71
2023/12/19 06:42:35;;;;;;;0.20;0.20;;;;;;;;;;4957281;28;20279;-71
2023/12/19 06:45:01;;;;;;;0.20;0.20;;;;;;;;;;4984602;28;20213;-71
2023/12/19 06:47:28;;;;;;;0.10;0.10;;;;;;;;;;4973240;28;20239;-70
2023/12/19 06:49:54;;;;;;;0.20;0.20;;;;;;;;;;4984663;28;20209;-70
2023/12/19 06:52:21;;;;;;;0.20;0.20;;;;;;;;;;4973256;28;20322;-70
2023/12/19 06:54:47;;;;;;;0.20;0.20;;;;;;;;;;4984483;28;20275;-70
2023/12/19 06:57:15;;;;;;;0.20;0.20;;;;;;;;;;4973169;28;20308;-70
2023/12/19 06:59:41;;;;;;;0.10;0.10;;;;;;;;;;4984429;28;20284;-70
2023/12/19 07:02:08;;;;;;;0.17;0.17;;;;;;;;;;4972999;28;20307;-71
2023/12/19 07:04:34;;;;;;;0.30;0.30;;;;;;;;;;4984719;28;20265;-70
2023/12/19 07:07:00;;;;;;;0.20;0.20;;;;;;;;;;4976823;28;20468;-70
2023/12/19 07:09:27;;;;;;;0.20;0.20;;;;;;;;;;4987980;28;20207;-70
2023/12/19 07:11:53;;;;;;;0.20;0.20;;;;;;;;;;4976733;28;20554;-70
2023/12/19 07:14:21;;;;;;;0.20;0.20;;;;;;;;;;4987746;28;20396;-71
2023/12/19 07:16:47;;;;;;;0.20;0.20;;;;;;;;;;4976673;28;20240;-70
2023/12/19 07:19:14;;;;;;;0.20;0.20;;;;;;;;;;4987517;28;20208;-71
2023/12/19 07:21:40;;;;;;;0.17;0.17;;;;;;;;;;4976727;28;20254;-71
2023/12/19 07:24:07;;;;;;;0.20;0.20;;;;;;;;;;4987612;28;20208;-71
2023/12/19 07:26:34;;;;;;;0.20;0.20;;;;;;;;;;4976650;28;20469;-70
2023/12/19 07:29:02;;;;;;;0.20;0.20;;;;;;;;;;4987178;28;20236;-70
2023/12/19 07:31:31;;;;;;;0.20;0.20;;;;;;;;;;4976661;28;20252;-71
2023/12/19 07:33:58;;;;;;;0.20;0.20;;;;;;;;;;4987305;28;20524;-70
2023/12/19 07:36:24;;;;;;;1.90;1.90;;;;;;;;;;4976618;28;20499;-70
2023/12/19 07:38:51;;;;;;;0.20;0.20;;;;;;;;;;4987056;28;20412;-71
2023/12/19 07:41:18;;;;;;;0.10;0.10;;;;;;;;;;4976686;28;20244;-70
2023/12/19 07:43:44;;;;;;;0.20;0.20;;;;;;;;;;4987078;28;20209;-71
2023/12/19 07:46:11;;;;;;;0.10;0.10;;;;;;;;;;4976581;28;20314;-71
2023/12/19 07:48:39;;;;;;;0.10;0.10;;;;;;;;;;4986640;28;20236;-70
2023/12/19 07:51:05;;;;;;;0.20;0.20;;;;;;;;;;4976403;28;20245;-71
2023/12/19 07:53:32;;;;;;;0.20;0.20;;;;;;;;;;4986748;28;20213;-70
2023/12/19 07:55:58;;;;;;;0.20;0.20;;;;;;;;;;4976472;28;20240;-70
2023/12/19 07:58:25;;;;;;;0.17;0.17;;;;;;;;;;4986374;28;20467;-71
2023/12/19 08:00:51;;;;;;;0.20;0.20;;;;;;;;;;4976543;28;20257;-70
2023/12/19 08:03:18;;;;;;;0.20;0.20;;;;;;;;;;4985977;28;20206;-71
2023/12/19 08:05:50;;;;;;;0.10;0.10;;;;;;;;;;4976427;28;20245;-71
2023/12/19 08:08:16;;;;;;;0.10;0.10;;;;;;;;;;4986267;28;20192;-71
2023/12/19 08:10:51;;;;;;;0.10;0.10;;;;;;;;;;4976308;28;20270;-70
2023/12/19 08:13:20;;;;;;;0.20;0.20;;;;;;;;;;4985832;28;20280;-71
2023/12/19 08:15:46;;;;;;;0.10;0.10;;;;;;;;;;4976091;28;20289;-70
2023/12/19 08:18:12;;;;;;;0.13;0.13;;;;;;;;;;4985241;28;20283;-71
2023/12/19 08:20:39;;;;;;;0.20;0.20;;;;;;;;;;4976135;28;20242;-70
2023/12/19 08:23:07;;;;;;;0.20;0.20;;;;;;;;;;4985691;28;20226;-71
2023/12/19 08:25:33;;;;;;;0.10;0.10;;;;;;;;;;4976507;28;20470;-71
2023/12/19 08:28:01;;;;;;;0.20;0.20;;;;;;;;;;4985578;28;20316;-71
2023/12/19 08:30:28;;;;;;;0.20;0.20;;;;;;;;;;4976007;28;20286;-70
2023/12/19 08:32:54;;;;;;;0.20;0.20;;;;;;;;;;4985723;28;20391;-70
2023/12/19 08:35:21;;;;;;;0.20;0.20;;;;;;;;;;4976281;28;20497;-71
2023/12/19 08:37:47;;;;;;;0.20;0.20;;;;;;;;;;4985155;28;20217;-70
2023/12/19 08:40:15;;;;;;;0.20;0.20;;;;;;;;;;4976419;28;20242;-71
2023/12/19 08:42:42;;;;;;;0.20;0.20;;;;;;;;;;4985056;28;20461;-70
2023/12/19 08:45:14;;;;;;;0.10;0.10;;;;;;;;;;4985932;28;20214;-71
2023/12/19 08:47:40;;;;;;;0.20;0.20;;;;;;;;;;4959026;28;20377;-71
2023/12/19 08:50:08;;;;;;;0.20;0.20;;;;;;;;;;4986322;28;20457;-70
2023/12/19 08:52:37;;;;;;;0.20;0.20;;;;;;;;;;4958749;28;20458;-71
2023/12/19 08:55:04;;;;;;;0.10;0.10;;;;;;;;;;4986259;28;20211;-72
2023/12/19 08:57:32;;;;;;;0.20;0.20;;;;;;;;;;4974613;28;20250;-70
2023/12/19 08:59:58;;;;;;;0.10;0.10;;;;;;;;;;4986169;28;20242;-70
2023/12/19 09:02:25;;;;;;;0.20;0.20;;;;;;;;;;4974576;28;20242;-70
2023/12/19 09:04:51;;;;;;;0.20;0.20;;;;;;;;;;4985638;28;20281;-70
2023/12/19 09:07:18;;;;;;;0.20;0.20;;;;;;;;;;4974509;28;20242;-71
2023/12/19 09:09:44;;;;;;;0.20;0.20;;;;;;;;;;4985801;28;20209;-71
2023/12/19 09:12:11;;;;;;;0.20;0.20;;;;;;;;;;4974490;28;20305;-71
2023/12/19 09:14:38;;;;;;;0.10;0.10;;;;;;;;;;4985740;28;20245;-71
2023/12/19 09:17:05;;;;;;;0.10;0.10;;;;;;;;;;4974302;28;20250;-70
2023/12/19 09:19:34;;;;;;;0.17;0.17;;;;;;;;;;4985324;28;20239;-70
2023/12/19 09:22:00;;;;;;;1.33;1.13;;;;;;;;;;4974266;28;20249;-71
2023/12/19 09:24:30;;;;;;;0.10;0.10;;;;;;;;;;4985491;28;20241;-70
2023/12/19 09:26:57;;;;;;;0.20;0.20;;;;;;;;;;4974618;28;20244;-71
2023/12/19 09:29:25;;;;;;;0.10;0.10;;;;;;;;;;4984586;28;20214;-70
2023/12/19 09:31:53;;;;;;;0.20;0.20;;;;;;;;;;4974317;28;20317;-70
2023/12/19 09:34:20;;;;;;;0.10;0.10;;;;;;;;;;4985373;28;20217;-70
2023/12/19 09:36:46;;;;;;;0.10;0.10;;;;;;;;;;4974315;28;20242;-70
2023/12/19 09:39:14;;;;;;;0.20;0.20;;;;;;;;;;4984899;28;20230;-70
2023/12/19 09:41:40;;;;;;;0.17;0.17;;;;;;;;;;4974117;28;20308;-71
2023/12/19 09:44:07;;;;;;;0.20;0.20;;;;;;;;;;4985122;28;20236;-71
2023/12/19 09:46:34;;;;;;;0.17;0.17;;;;;;;;;;4974255;28;20249;-70
2023/12/19 09:49:03;;;;;;;0.10;0.10;;;;;;;;;;4984673;28;20504;-70
2023/12/19 09:51:30;;;;;;;0.10;0.10;;;;;;;;;;4974179;28;20252;-71
2023/12/19 09:53:57;;;;;;;0.10;0.10;;;;;;;;;;4984859;28;20209;-70
2023/12/19 09:56:24;;;;;;;0.10;0.10;;;;;;;;;;4974167;28;20244;-71
2023/12/19 09:58:52;;;;;;;0.13;0.13;;;;;;;;;;4984705;28;20478;-70
2023/12/19 10:01:18;;;;;;;0.13;0.13;;;;;;;;;;4974098;28;20244;-71
2023/12/19 10:03:45;;;;;;;0.10;0.10;;;;;;;;;;4984240;28;20289;-70
2023/12/19 10:06:12;;;;;;;0.10;0.10;;;;;;;;;;4974247;28;20303;-70
2023/12/19 10:08:40;;;;;;;0.10;0.10;;;;;;;;;;4984310;28;20213;-71
2023/12/19 10:11:07;;;;;;;0.10;0.10;;;;;;;;;;4974154;28;20242;-71
2023/12/19 10:13:35;;;;;;;0.20;0.20;;;;;;;;;;4984081;28;20253;-70
2023/12/19 10:16:02;;;;;;;0.13;0.13;;;;;;;;;;4974075;28;20278;-71
2023/12/19 10:18:28;;;;;;;0.53;0.53;;;;;;;;;;4984137;28;20414;-71
2023/12/19 10:21:02;;;;;;;0.43;0.43;;;;;;;;;;4974015;28;20245;-71
2023/12/19 10:23:30;;;;;;;0.20;0.20;;;;;;;;;;4983971;28;20390;-71
2023/12/19 10:25:56;;;;;;;0.47;0.47;;;;;;;;;;4974065;28;20305;-71
2023/12/19 10:28:22;;;;;;;0.20;0.20;;;;;;;;;;4984101;28;20297;-70
2023/12/19 10:30:49;;;;;;;0.20;0.20;;;;;;;;;;4974170;28;20252;-71
2023/12/19 10:33:15;;;;;;;0.20;0.20;;;;;;;;;;4983893;28;20402;-70
2023/12/19 10:35:42;;;;;;;0.10;0.10;;;;;;;;;;4974235;28;20285;-70
2023/12/19 10:38:09;;;;;;;0.20;0.20;;;;;;;;;;4983825;28;20215;-70
2023/12/19 10:40:37;;;;;;;0.10;0.10;;;;;;;;;;4976825;28;20245;-71
2023/12/19 10:43:03;;;;;;;0.10;0.10;;;;;;;;;;4987373;28;20201;-71
2023/12/19 10:45:30;;;;;;;0.10;0.10;;;;;;;;;;4978552;28;20246;-71
2023/12/19 10:47:57;;;;;;;0.20;0.20;;;;;;;;;;4987582;28;20231;-70
2023/12/19 10:50:23;;;;;;;0.10;0.10;;;;;;;;;;4978343;28;20238;-70
2023/12/19 10:52:51;;;;;;;0.20;0.20;;;;;;;;;;4987177;28;20233;-70
2023/12/19 10:55:21;;;;;;;0.20;0.20;;;;;;;;;;4978329;28;20198;-70
2023/12/19 10:57:51;;;;;;;0.10;0.10;;;;;;;;;;4986968;28;20240;-70
2023/12/19 11:00:21;;;;;;;0.20;0.20;;;;;;;;;;4977783;28;20214;-71
2023/12/19 11:02:54;;;;;;;0.10;0.10;;;;;;;;;;4986940;28;20252;-71
2023/12/19 11:05:24;;;;;;;0.17;0.17;;;;;;;;;;4977581;28;20240;-70
2023/12/19 11:07:50;;;;;;;0.10;0.10;;;;;;;;;;4987202;28;20376;-70
2023/12/19 11:10:19;;;;;;;0.10;0.10;;;;;;;;;;4978214;28;20208;-71
2023/12/19 11:12:46;;;;;;;0.20;0.20;;;;;;;;;;4986743;28;20197;-71
2023/12/19 11:15:15;;;;;;;0.20;0.20;;;;;;;;;;4977546;28;20209;-71
2023/12/19 11:17:46;;;;;;;0.20;0.20;;;;;;;;;;4986593;28;20222;-70
2023/12/19 11:20:17;;;;;;;0.10;0.10;;;;;;;;;;4977814;28;20548;-70
2023/12/19 11:22:49;;;;;;;0.20;0.20;;;;;;;;;;4986875;28;20258;-71
2023/12/19 11:25:22;;;;;;;0.10;0.10;;;;;;;;;;4977905;28;20207;-71
2023/12/19 11:27:53;;;;;;;0.17;0.17;;;;;;;;;;4986431;28;20282;-71
2023/12/19 11:30:35;;;;;;;0.20;0.20;;;;;;;;;;4977790;28;20450;-71
2023/12/19 11:33:01;;;;;;;0.10;0.10;;;;;;;;;;4986766;28;20211;-70
2023/12/19 11:35:28;;;;;;;0.10;0.10;;;;;;;;;;4977623;28;20236;-71
2023/12/19 11:38:22;;;;;;;0.10;0.10;;;;;;;;;;4986625;28;20201;-70
2023/12/19 11:40:49;;;;;;;0.10;0.10;;;;;;;;;;4976880;28;20251;-71
2023/12/19 11:43:31;;;;;;;0.10;0.10;;;;;;;;;;4986613;28;20463;-71
2023/12/19 11:46:06;;;;;;;0.13;0.13;;;;;;;;;;4976117;28;20254;-70
2023/12/19 11:48:39;;;;;;;0.20;0.20;;;;;;;;;;4986835;28;20271;-70
2023/12/19 11:51:07;;;;;;;0.27;0.27;;;;;;;;;;4975828;28;20334;-70
2023/12/19 11:53:34;;;;;;;6.03;4.83;;;;;;;;;;4986406;28;20516;-71
2023/12/19 11:56:05;;;;;;;0.20;0.20;;;;;;;;;;4976689;28;20462;-71
2023/12/19 11:58:32;;;;;;;0.10;0.10;;;;;;;;;;4986333;28;20228;-70
2023/12/19 12:00:59;;;;;;;0.13;0.13;;;;;;;;;;4976552;28;20266;-71
2023/12/19 12:03:26;;;;;;;0.10;0.10;;;;;;;;;;4986069;28;20296;-71
2023/12/19 12:05:53;;;;;;;0.20;0.20;;;;;;;;;;4976222;28;20252;-71
2023/12/19 12:08:20;;;;;;;0.10;0.10;;;;;;;;;;4985914;28;20209;-71
2023/12/19 12:10:57;;;;;;;0.10;0.10;;;;;;;;;;4976616;28;20254;-71
2023/12/19 12:13:24;;;;;;;0.10;0.10;;;;;;;;;;4985889;28;20561;-71
2023/12/19 12:15:53;;;;;;;0.17;0.17;;;;;;;;;;4976603;28;20246;-71
2023/12/19 12:18:21;;;;;;;0.10;0.10;;;;;;;;;;4985699;28;20213;-71
2023/12/19 12:20:47;;;;;;;0.10;0.10;;;;;;;;;;4976535;28;20445;-71
2023/12/19 12:23:17;;;;;;;0.20;0.20;;;;;;;;;;4985918;28;20226;-72
2023/12/19 12:25:44;;;;;;;0.20;0.20;;;;;;;;;;4976211;28;20254;-71
2023/12/19 12:28:10;;;;;;;0.10;0.10;;;;;;;;;;4985610;28;20254;-71
2023/12/19 12:30:38;;;;;;;0.20;0.20;;;;;;;;;;4976421;28;20253;-71
2023/12/19 12:33:04;;;;;;;0.10;0.10;;;;;;;;;;4985708;28;20392;-71
2023/12/19 12:35:35;;;;;;;0.20;0.20;;;;;;;;;;4976546;28;20278;-71
2023/12/19 12:38:03;;;;;;;0.17;0.17;;;;;;;;;;4985233;28;20210;-71
2023/12/19 12:40:29;;;;;;;0.20;0.20;;;;;;;;;;4976418;28;20241;-70
2023/12/19 12:43:10;;;;;;;0.20;0.20;;;;;;;;;;4985448;28;20222;-71
2023/12/19 12:45:37;;;;;;;0.20;0.20;;;;;;;;;;4975141;28;20302;-71
2023/12/19 12:48:11;;;;;;;0.10;0.10;;;;;;;;;;4985062;28;20278;-72
2023/12/19 12:50:39;;;;;;;0.10;0.10;;;;;;;;;;4975798;28;20318;-71
2023/12/19 12:53:05;;;;;;;0.10;0.10;;;;;;;;;;4985214;28;20218;-72
2023/12/19 12:55:32;;;;;;;0.10;0.10;;;;;;;;;;4975704;28;20274;-71
2023/12/19 12:58:01;;;;;;;0.20;0.20;;;;;;;;;;4985023;28;20191;-71
2023/12/19 13:00:28;;;;;;;0.10;0.10;;;;;;;;;;4975952;28;20231;-71
2023/12/19 13:02:55;;;;;;;0.20;0.20;;;;;;;;;;4985063;28;20389;-71
2023/12/19 13:05:21;;;;;;;0.10;0.10;;;;;;;;;;4975453;28;20588;-71
2023/12/19 13:07:50;;;;;;;0.10;0.10;;;;;;;;;;4984991;28;20202;-71
2023/12/19 13:10:17;;;;;;;0.10;0.10;;;;;;;;;;4976044;28;20423;-71
2023/12/19 13:12:43;;;;;;;0.10;0.10;;;;;;;;;;4984388;28;20206;-71
2023/12/19 13:15:11;;;;;;;0.20;0.20;;;;;;;;;;4982388;28;20212;-72
2023/12/19 13:17:37;;;;;;;0.20;0.20;;;;;;;;;;4984566;28;20223;-72
2023/12/19 13:20:04;;;;;;;0.10;0.10;;;;;;;;;;4985372;28;20233;-72
2023/12/19 13:22:31;;;;;;;0.10;0.10;;;;;;;;;;4974339;28;20449;-71
2023/12/19 13:24:58;;;;;;;0.10;0.10;;;;;;;;;;4985841;28;20262;-71
2023/12/19 13:27:26;;;;;;;0.10;0.10;;;;;;;;;;4974345;28;20442;-71
2023/12/19 13:29:53;;;;;;;0.10;0.10;;;;;;;;;;4985602;28;20241;-71
2023/12/19 13:32:19;;;;;;;0.10;0.10;;;;;;;;;;4974131;28;20305;-70
2023/12/19 13:34:45;;;;;;;0.10;0.10;;;;;;;;;;4985701;28;20280;-71
2023/12/19 13:37:12;;;;;;;0.20;0.20;;;;;;;;;;4974103;28;20241;-71
2023/12/19 13:39:39;;;;;;;0.20;0.20;;;;;;;;;;4985346;28;20226;-71
2023/12/19 13:42:07;;;;;;;0.20;0.20;;;;;;;;;;4974114;28;20242;-71
2023/12/19 13:44:33;;;;;;;0.10;0.10;;;;;;;;;;4985114;28;20233;-71
2023/12/19 13:46:59;;;;;;;0.10;0.10;;;;;;;;;;4974096;28;20256;-71
2023/12/19 13:49:26;;;;;;;0.13;0.13;;;;;;;;;;4985039;28;20204;-71
2023/12/19 13:51:52;;;;;;;0.10;0.10;;;;;;;;;;4974207;28;20596;-71
2023/12/19 13:54:21;;;;;;;0.20;0.20;;;;;;;;;;4984949;28;20455;-71
2023/12/19 13:56:47;;;;;;;0.10;0.10;;;;;;;;;;4974110;28;20640;-71
2023/12/19 13:59:15;;;;;;;0.10;0.10;;;;;;;;;;4984557;28;20424;-71
2023/12/19 14:01:41;;;;;;;0.10;0.10;;;;;;;;;;4974215;28;20510;-71
2023/12/19 14:04:09;;;;;;;0.80;0.80;;;;;;;;;;4984392;28;20238;-71
2023/12/19 14:06:35;;;;;;;1.07;1.07;;;;;;;;;;4974029;28;20416;-71
2023/12/19 14:09:01;;;;;;;0.20;0.20;;;;;;;;;;4984747;28;20476;-71
2023/12/19 14:11:28;;;;;;;0.10;0.10;;;;;;;;;;4973879;28;20301;-71
2023/12/19 14:13:54;;;;;;;0.60;0.60;;;;;;;;;;4984273;28;20437;-71
2023/12/19 14:16:22;;;;;;;0.20;0.20;;;;;;;;;;4973886;28;20261;-71
2023/12/19 14:18:48;;;;;;;0.20;0.20;;;;;;;;;;4984193;28;20214;-71
2023/12/19 14:21:15;;;;;;;0.20;0.20;;;;;;;;;;4973937;28;20307;-71
2023/12/19 14:23:41;;;;;;;0.10;0.10;;;;;;;;;;4984053;28;20210;-71
2023/12/19 14:26:08;;;;;;;0.20;0.20;;;;;;;;;;4973908;28;20301;-72
2023/12/19 14:28:34;;;;;;;0.10;0.10;;;;;;;;;;4984039;28;20206;-71
2023/12/19 14:31:00;;;;;;;0.10;0.10;;;;;;;;;;4974278;28;20309;-71
2023/12/19 14:33:30;;;;;;;0.20;0.20;;;;;;;;;;4983978;28;20245;-71
2023/12/19 14:35:57;;;;;;;0.10;0.10;;;;;;;;;;4974249;28;20239;-71
2023/12/19 14:38:23;;;;;;;0.10;0.10;;;;;;;;;;4983523;28;20544;-71
2023/12/19 14:40:50;;;;;;;0.20;0.20;;;;;;;;;;4974154;28;20281;-71
2023/12/19 14:43:19;;;;;;;0.13;0.13;;;;;;;;;;4983568;28;20507;-71
2023/12/19 14:45:45;;;;;;;0.20;0.20;;;;;;;;;;4973977;28;20246;-70
2023/12/19 14:48:11;;;;;;;0.20;0.20;;;;;;;;;;4983385;28;20233;-71